Time;durP1;ratioP1;P1;durP2;ratioP2;P2;SDS_P1;SDS_P2;PMS_P1;PMS_P2;Temp;Humidity;BMP_temperature;BMP_pressure;BME280_temperature;BME280_humidity;BME280_pressure;Samples;Min_cycle;Max_cycle;Signal;HPM_P1;HPM_P2
2023/02/17 00:01:30;;;;;;;10.55;4.35;;;10.10;99.90;;;;;;5007598;28;20058;-71
2023/02/17 00:03:56;;;;;;;9.25;3.72;;;10.10;99.90;;;;;;5012826;28;20060;-69
2023/02/17 00:06:26;;;;;;;9.00;4.07;;;10.00;99.90;;;;;;5003464;28;20455;-69
2023/02/17 00:08:52;;;;;;;9.27;3.90;;;10.10;99.90;;;;;;4994586;28;20092;-69
2023/02/17 00:11:19;;;;;;;13.48;3.80;;;10.10;99.90;;;;;;4993609;28;20041;-69
2023/02/17 00:13:45;;;;;;;7.32;4.32;;;10.00;99.90;;;;;;5004660;28;20029;-69
2023/02/17 00:16:26;;;;;;;9.63;3.60;;;10.00;99.90;;;;;;5022980;28;20157;-68
2023/02/17 00:18:58;;;;;;;11.60;4.32;;;10.00;99.90;;;;;;4994927;28;20036;-70
2023/02/17 00:21:30;;;;;;;8.95;3.50;;;10.00;99.90;;;;;;4993548;28;20116;-69
2023/02/17 00:23:57;;;;;;;7.57;4.18;;;10.00;99.90;;;;;;5005294;28;20037;-68
2023/02/17 00:26:23;;;;;;;8.98;4.07;;;10.00;99.90;;;;;;5014532;28;20026;-68
2023/02/17 00:28:49;;;;;;;8.05;4.18;;;10.10;99.90;;;;;;5022672;28;20104;-69
2023/02/17 00:31:19;;;;;;;7.55;3.72;;;10.10;99.90;;;;;;4996455;28;20104;-68
2023/02/17 00:33:45;;;;;;;9.73;3.05;;;10.00;99.90;;;;;;5022154;28;20025;-69
2023/02/17 00:36:19;;;;;;;6.38;3.28;;;10.00;99.90;;;;;;5019734;28;20080;-69
2023/02/17 00:38:46;;;;;;;4.85;2.88;;;10.00;99.90;;;;;;5025865;28;20022;-69
2023/02/17 00:41:12;;;;;;;7.65;3.38;;;10.00;99.90;;;;;;5021591;28;20033;-69
2023/02/17 00:43:38;;;;;;;6.97;3.50;;;10.00;99.90;;;;;;5006208;28;20030;-69
2023/02/17 00:46:04;;;;;;;6.70;3.13;;;10.00;99.90;;;;;;5023800;28;20053;-69
2023/02/17 00:48:31;;;;;;;6.10;3.08;;;10.00;99.90;;;;;;5021746;28;20384;-68
2023/02/17 00:50:57;;;;;;;6.10;3.17;;;10.00;99.90;;;;;;5011982;28;20040;-68
2023/02/17 00:53:22;;;;;;;12.18;3.55;;;10.00;99.90;;;;;;5022876;28;20026;-68
2023/02/17 00:55:49;;;;;;;7.63;3.67;;;9.90;99.90;;;;;;4977975;28;20034;-68
2023/02/17 00:58:15;;;;;;;6.00;3.28;;;9.90;99.90;;;;;;5018322;28;20486;-69
2023/02/17 01:00:40;;;;;;;6.97;3.42;;;9.90;99.90;;;;;;5029000;28;20108;-69
2023/02/17 01:03:06;;;;;;;7.40;3.15;;;10.00;99.90;;;;;;5005451;28;20132;-69
2023/02/17 01:05:32;;;;;;;6.00;3.25;;;10.00;99.90;;;;;;5029474;28;20026;-71
2023/02/17 01:07:58;;;;;;;10.07;3.75;;;10.10;99.90;;;;;;5003164;28;20037;-69
2023/02/17 01:10:24;;;;;;;7.05;3.08;;;10.00;99.90;;;;;;5017721;28;20038;-69
2023/02/17 01:12:50;;;;;;;9.20;3.88;;;10.00;99.90;;;;;;5004457;28;20362;-68
2023/02/17 01:15:16;;;;;;;11.45;4.05;;;10.00;99.90;;;;;;5029499;28;20091;-69
2023/02/17 01:17:41;;;;;;;12.88;4.32;;;10.00;99.90;;;;;;5017667;28;20414;-69
2023/02/17 01:20:08;;;;;;;5.63;2.90;;;10.00;99.90;;;;;;5002502;28;20049;-69
2023/02/17 01:22:33;;;;;;;7.90;3.28;;;10.00;99.90;;;;;;5014790;28;20037;-69
2023/02/17 01:24:59;;;;;;;11.93;3.17;;;9.90;99.90;;;;;;5027630;28;20075;-69
2023/02/17 01:27:25;;;;;;;4.70;2.58;;;9.90;99.90;;;;;;4999727;28;20033;-69
2023/02/17 01:29:51;;;;;;;8.45;4.22;;;9.90;99.90;;;;;;5026285;28;20084;-69
2023/02/17 01:32:16;;;;;;;8.32;3.70;;;9.90;99.90;;;;;;5024585;28;20037;-69
2023/02/17 01:34:42;;;;;;;6.32;2.58;;;10.00;99.90;;;;;;5025419;28;20468;-69
2023/02/17 01:37:08;;;;;;;5.20;2.90;;;10.00;99.90;;;;;;5015628;28;20025;-69
2023/02/17 01:39:33;;;;;;;5.60;3.13;;;10.10;99.90;;;;;;5025308;28;20030;-69
2023/02/17 01:41:59;;;;;;;7.35;2.38;;;10.20;99.90;;;;;;5024515;28;20047;-69
2023/02/17 01:44:25;;;;;;;6.75;2.70;;;10.30;99.90;;;;;;5025512;28;20384;-69
2023/02/17 01:46:54;;;;;;;6.60;3.00;;;10.40;99.90;;;;;;5016845;28;20426;-69
2023/02/17 01:49:35;;;;;;;9.60;3.15;;;10.40;99.90;;;;;;5007686;28;20026;-70
2023/02/17 01:52:10;;;;;;;;;;;10.40;99.90;;;;;;5007614;28;20036;-70
2023/02/17 01:55:01;;;;;;;6.93;3.55;;;10.40;99.90;;;;;;5025343;28;19909;-69
2023/02/17 01:57:31;;;;;;;9.05;3.80;;;10.40;99.90;;;;;;5007152;28;20033;-70
2023/02/17 01:59:58;;;;;;;6.82;3.10;;;10.40;99.90;;;;;;5009372;28;20460;-70
2023/02/17 02:02:23;;;;;;;5.35;2.50;;;10.40;99.90;;;;;;5007217;28;20025;-69
2023/02/17 02:04:52;;;;;;;6.47;3.08;;;10.30;99.90;;;;;;4994720;28;20038;-70
2023/02/17 02:07:25;;;;;;;6.10;2.90;;;10.40;99.90;;;;;;5003337;28;20022;-70
2023/02/17 02:09:56;;;;;;;5.35;2.33;;;10.40;99.90;;;;;;4996114;28;20025;-69
2023/02/17 02:12:31;;;;;;;7.07;2.75;;;10.40;99.90;;;;;;5002949;28;20155;-70
2023/02/17 02:15:01;;;;;;;7.93;2.60;;;10.40;99.90;;;;;;5015817;28;20033;-69
2023/02/17 02:18:00;;;;;;;4.85;2.65;;;10.40;99.90;;;;;;5013312;28;20061;-70
2023/02/17 02:20:54;;;;;;;7.07;2.78;;;10.40;99.90;;;;;;5010909;28;20037;-70
2023/02/17 02:24:01;;;;;;;11.77;2.90;;;10.40;99.90;;;;;;5015550;28;20144;-70
2023/02/17 02:27:14;;;;;;;10.48;2.42;;;10.40;99.90;;;;;;4978199;28;20526;-70
2023/02/17 02:30:09;;;;;;;7.45;2.97;;;10.30;99.90;;;;;;4924956;29;20039;-70
2023/02/17 02:32:53;;;;;;;3.83;2.33;;;10.30;99.90;;;;;;4915225;29;20475;-69
2023/02/17 02:42:40;;;;;;;6.72;2.63;;;10.50;99.90;;;;;;4920258;29;20775;-69
2023/02/17 02:45:09;;;;;;;6.55;2.08;;;10.50;99.90;;;;;;4927147;29;20058;-69
2023/02/17 02:47:49;;;;;;;7.35;3.05;;;10.50;99.90;;;;;;4907237;29;20051;-70
2023/02/17 02:51:00;;;;;;;6.43;2.70;;;10.60;99.90;;;;;;4928502;29;20119;-70
2023/02/17 02:54:10;;;;;;;7.68;2.50;;;10.60;99.90;;;;;;4908021;29;20044;-69
2023/02/17 02:57:10;;;;;;;4.80;2.63;;;10.70;99.90;;;;;;4909895;29;20067;-69
2023/02/17 03:00:25;;;;;;;4.28;2.33;;;10.80;99.90;;;;;;4943387;28;20513;-70
2023/02/17 03:03:54;;;;;;;14.20;2.50;;;10.80;99.90;;;;;;4983652;28;20501;-69
2023/02/17 03:06:55;;;;;;;5.05;2.10;;;10.90;99.90;;;;;;4894427;29;20040;-69
2023/02/17 03:09:26;;;;;;;6.05;2.10;;;11.00;99.90;;;;;;5012365;28;20374;-69
2023/02/17 03:11:55;;;;;;;6.32;2.42;;;10.80;99.90;;;;;;5005967;28;20041;-69
2023/02/17 03:14:22;;;;;;;4.95;2.40;;;10.70;99.90;;;;;;5006025;28;20078;-69
2023/02/17 03:16:49;;;;;;;3.88;2.42;;;10.70;99.90;;;;;;4997012;28;20025;-69
2023/02/17 03:19:18;;;;;;;2.85;1.65;;;10.60;99.90;;;;;;5006341;28;20028;-70
2023/02/17 03:22:13;;;;;;;6.03;2.72;;;10.60;99.90;;;;;;5022755;28;20030;-70
2023/02/17 03:24:39;;;;;;;10.68;3.03;;;10.70;99.90;;;;;;5009268;28;20512;-69
2023/02/17 03:27:04;;;;;;;6.28;2.75;;;10.60;99.90;;;;;;5021706;28;20029;-69
2023/02/17 03:29:30;;;;;;;4.75;3.20;;;10.50;99.90;;;;;;5005729;28;20064;-70
2023/02/17 03:31:56;;;;;;;4.85;2.58;;;10.50;99.90;;;;;;5015290;28;20053;-70
2023/02/17 03:34:22;;;;;;;5.20;2.22;;;10.50;99.90;;;;;;5005775;28;20025;-70
2023/02/17 03:36:47;;;;;;;4.93;2.40;;;10.40;99.90;;;;;;5004801;28;20041;-70
2023/02/17 03:39:13;;;;;;;9.70;3.70;;;10.40;99.90;;;;;;5023066;28;20033;-70
2023/02/17 03:41:39;;;;;;;4.75;2.38;;;10.50;99.90;;;;;;5004898;28;20075;-69
2023/02/17 03:44:04;;;;;;;7.18;2.58;;;10.50;99.90;;;;;;5005473;28;20499;-70
2023/02/17 03:46:30;;;;;;;4.15;2.15;;;10.50;99.90;;;;;;5014381;28;20692;-70
2023/02/17 03:48:56;;;;;;;6.25;2.97;;;10.50;99.90;;;;;;5022839;28;20040;-69
2023/02/17 03:51:24;;;;;;;3.97;2.47;;;10.50;99.90;;;;;;5014910;28;20022;-69
2023/02/17 03:53:50;;;;;;;5.78;1.73;;;10.40;99.90;;;;;;5011417;28;20516;-69
2023/02/17 03:56:18;;;;;;;8.50;2.40;;;10.50;99.90;;;;;;4993657;28;20037;-70
2023/02/17 03:58:44;;;;;;;3.50;1.65;;;10.50;99.90;;;;;;5004956;28;20027;-70
2023/02/17 04:01:12;;;;;;;9.65;3.47;;;10.50;99.90;;;;;;5006589;28;20105;-70
2023/02/17 04:03:38;;;;;;;6.75;2.25;;;10.60;99.90;;;;;;5021165;28;20034;-70
2023/02/17 04:06:05;;;;;;;5.47;2.65;;;10.60;99.90;;;;;;5007082;28;20053;-69
2023/02/17 04:08:32;;;;;;;6.20;2.70;;;10.70;99.90;;;;;;5002616;28;20149;-69
2023/02/17 04:11:00;;;;;;;5.88;1.98;;;10.70;99.90;;;;;;5025291;28;20121;-69
2023/02/17 04:13:27;;;;;;;3.67;2.03;;;10.70;99.90;;;;;;5002210;28;20041;-70
2023/02/17 04:15:53;;;;;;;3.85;1.83;;;10.70;99.90;;;;;;5013542;28;20050;-70
2023/02/17 04:18:20;;;;;;;9.57;3.00;;;10.70;99.90;;;;;;4997705;28;20080;-69
2023/02/17 04:20:48;;;;;;;5.88;2.60;;;10.70;99.90;;;;;;5006900;28;20031;-70
2023/02/17 04:23:15;;;;;;;4.30;2.13;;;10.70;99.90;;;;;;5014762;28;20030;-70
2023/02/17 04:25:41;;;;;;;4.88;2.08;;;10.70;99.90;;;;;;5007129;28;20029;-70
2023/02/17 04:28:07;;;;;;;3.70;2.00;;;10.60;99.90;;;;;;4996242;28;20030;-69
2023/02/17 04:30:34;;;;;;;5.32;1.75;;;10.60;99.90;;;;;;5026117;28;20089;-70
2023/02/17 04:33:00;;;;;;;3.25;2.08;;;10.60;99.90;;;;;;4994953;28;20037;-70
2023/02/17 04:35:26;;;;;;;4.15;2.28;;;10.60;99.90;;;;;;5026352;28;20037;-70
2023/02/17 04:37:52;;;;;;;7.03;2.58;;;10.60;99.90;;;;;;5017812;28;20022;-69
2023/02/17 04:40:18;;;;;;;3.00;1.83;;;10.70;99.90;;;;;;5008946;28;20110;-70
2023/02/17 04:42:44;;;;;;;4.03;2.10;;;10.60;99.90;;;;;;5004611;28;20029;-70
2023/02/17 04:45:10;;;;;;;6.00;2.70;;;10.60;99.90;;;;;;4998269;28;20030;-69
2023/02/17 04:47:37;;;;;;;3.28;1.63;;;10.60;99.90;;;;;;5011291;28;20103;-69
2023/02/17 04:50:03;;;;;;;6.90;2.15;;;10.60;99.90;;;;;;5024321;28;20099;-70
2023/02/17 04:52:29;;;;;;;5.90;2.10;;;10.60;99.90;;;;;;5013168;28;20032;-70
2023/02/17 04:54:54;;;;;;;4.25;1.83;;;10.50;99.90;;;;;;5022612;28;20029;-70
2023/02/17 04:57:20;;;;;;;3.90;1.90;;;10.50;99.90;;;;;;5013989;28;20033;-70
2023/02/17 04:59:46;;;;;;;4.03;2.20;;;10.50;99.90;;;;;;5004253;28;20033;-70
2023/02/17 05:02:11;;;;;;;18.20;2.60;;;10.50;99.90;;;;;;5014066;28;20024;-70
2023/02/17 05:04:37;;;;;;;7.00;2.40;;;10.50;99.90;;;;;;5021939;28;20515;-70
2023/02/17 05:07:03;;;;;;;5.75;2.42;;;10.50;99.90;;;;;;5020587;28;20039;-70
2023/02/17 05:09:29;;;;;;;3.30;1.88;;;10.60;99.90;;;;;;5022045;28;20075;-70
2023/02/17 05:11:54;;;;;;;3.33;1.73;;;10.60;99.90;;;;;;5003726;28;20021;-70
2023/02/17 05:14:20;;;;;;;4.13;2.33;;;10.50;99.90;;;;;;5003926;28;20060;-70
2023/02/17 05:16:46;;;;;;;6.18;2.03;;;10.50;99.90;;;;;;4995214;28;20095;-70
2023/02/17 05:19:12;;;;;;;4.25;2.03;;;10.50;99.90;;;;;;5021505;28;20112;-70
2023/02/17 05:21:37;;;;;;;6.30;2.47;;;10.60;99.90;;;;;;5014541;28;20049;-70
2023/02/17 05:24:04;;;;;;;4.88;2.08;;;10.50;99.90;;;;;;5025477;28;20505;-70
2023/02/17 05:26:30;;;;;;;4.72;2.28;;;10.50;99.90;;;;;;5003830;28;20041;-70
2023/02/17 05:28:56;;;;;;;9.25;2.70;;;10.40;99.90;;;;;;5025335;28;20033;-70
2023/02/17 05:31:22;;;;;;;5.88;2.72;;;10.50;99.90;;;;;;5007851;28;20034;-69
2023/02/17 05:33:47;;;;;;;7.63;2.08;;;10.40;99.90;;;;;;4991020;28;20083;-69
2023/02/17 05:36:13;;;;;;;8.88;2.95;;;10.40;99.90;;;;;;5006286;28;20409;-70
2023/02/17 05:38:39;;;;;;;3.72;2.13;;;10.40;99.90;;;;;;4989290;28;20030;-72
2023/02/17 05:41:06;;;;;;;4.65;2.25;;;10.40;99.90;;;;;;4998492;28;20026;-71
2023/02/17 05:43:32;;;;;;;6.05;3.03;;;10.40;99.90;;;;;;5005783;28;20409;-78
2023/02/17 05:46:02;;;;;;;5.43;2.13;;;10.40;99.90;;;;;;5016739;28;20069;-70
2023/02/17 05:48:28;;;;;;;3.90;1.75;;;10.40;99.90;;;;;;4993523;28;20551;-71
2023/02/17 05:50:54;;;;;;;5.57;2.10;;;10.40;99.90;;;;;;5004133;28;20129;-71
2023/02/17 05:53:20;;;;;;;5.15;1.98;;;10.40;99.90;;;;;;5008356;28;20025;-68
2023/02/17 05:55:46;;;;;;;4.53;2.65;;;10.30;99.90;;;;;;5017988;28;20389;-68
2023/02/17 05:58:12;;;;;;;8.57;1.90;;;10.30;99.90;;;;;;5003104;28;20064;-69
2023/02/17 06:00:37;;;;;;;5.30;2.13;;;10.30;99.90;;;;;;4997387;28;20025;-70
2023/02/17 06:03:03;;;;;;;3.97;2.05;;;10.30;99.90;;;;;;5002209;28;20425;-69
2023/02/17 06:05:29;;;;;;;7.30;1.85;;;10.30;99.90;;;;;;4970879;28;20042;-68
2023/02/17 06:07:55;;;;;;;5.63;2.75;;;10.30;99.90;;;;;;5001649;28;20028;-68
2023/02/17 06:10:21;;;;;;;4.78;2.25;;;10.40;99.90;;;;;;5019800;28;20036;-69
2023/02/17 06:12:46;;;;;;;5.38;2.90;;;10.40;99.90;;;;;;5006713;28;20030;-67
2023/02/17 06:15:12;;;;;;;6.55;2.72;;;10.30;99.90;;;;;;5018990;28;20460;-68
2023/02/17 06:17:40;;;;;;;4.70;1.85;;;10.30;99.90;;;;;;4989866;28;20036;-70
2023/02/17 06:20:07;;;;;;;5.10;2.28;;;10.40;99.90;;;;;;5000798;28;20030;-68
2023/02/17 06:22:33;;;;;;;6.57;2.38;;;10.40;99.90;;;;;;4990926;28;20485;-68
2023/02/17 06:24:59;;;;;;;3.72;1.88;;;10.40;99.90;;;;;;5016977;28;20040;-67
2023/02/17 06:27:25;;;;;;;7.63;2.60;;;10.40;99.90;;;;;;5008567;28;20046;-68
2023/02/17 06:29:50;;;;;;;3.38;1.90;;;10.40;99.90;;;;;;5016036;28;20033;-67
2023/02/17 06:32:16;;;;;;;5.65;1.67;;;10.40;99.90;;;;;;5004670;28;20057;-71
2023/02/17 06:34:42;;;;;;;5.32;1.90;;;10.30;99.90;;;;;;5014559;28;20120;-67
2023/02/17 06:37:08;;;;;;;3.70;2.40;;;10.30;99.90;;;;;;5005986;28;20034;-68
2023/02/17 06:39:33;;;;;;;4.68;1.98;;;10.30;99.90;;;;;;4993964;28;20028;-68
2023/02/17 06:41:59;;;;;;;4.25;1.67;;;10.30;99.90;;;;;;5008623;28;20390;-70
2023/02/17 06:44:25;;;;;;;3.42;1.75;;;10.40;99.90;;;;;;5008840;28;20029;-69
2023/02/17 06:46:51;;;;;;;4.00;1.92;;;10.40;99.90;;;;;;5016370;28;20037;-67
2023/02/17 06:49:17;;;;;;;5.35;2.28;;;10.30;99.90;;;;;;5008165;28;20500;-68
2023/02/17 06:51:43;;;;;;;6.57;2.00;;;10.30;99.90;;;;;;5010273;28;20060;-66
2023/02/17 06:54:09;;;;;;;4.28;2.17;;;10.30;99.90;;;;;;4990896;28;20038;-69
2023/02/17 06:56:35;;;;;;;3.30;1.88;;;10.30;99.90;;;;;;5017457;28;20037;-68
2023/02/17 06:59:01;;;;;;;5.55;1.73;;;10.40;99.90;;;;;;5007346;28;20046;-66
2023/02/17 07:01:27;;;;;;;4.13;1.98;;;10.40;99.90;;;;;;5016947;28;20044;-67
2023/02/17 07:03:54;;;;;;;3.70;1.67;;;10.40;99.90;;;;;;5008177;28;20030;-68
2023/02/17 07:06:22;;;;;;;6.97;1.67;;;10.40;99.90;;;;;;4998159;28;20488;-67
2023/02/17 07:08:48;;;;;;;3.70;2.20;;;10.40;99.90;;;;;;4975329;28;20049;-67
2023/02/17 07:11:16;;;;;;;6.90;2.47;;;10.40;99.90;;;;;;5017895;28;20033;-67
2023/02/17 07:13:43;;;;;;;5.57;2.38;;;10.40;99.90;;;;;;4982272;28;20046;-67
2023/02/17 07:16:11;;;;;;;3.75;2.15;;;10.30;99.90;;;;;;4990707;28;20042;-67
2023/02/17 07:18:37;;;;;;;4.70;2.10;;;10.30;99.90;;;;;;4991484;28;20038;-66
2023/02/17 07:21:08;;;;;;;3.67;2.20;;;10.30;99.90;;;;;;4983127;28;20022;-67
2023/02/17 07:23:35;;;;;;;4.75;1.58;;;10.30;99.90;;;;;;4990891;28;20045;-67
2023/02/17 07:26:03;;;;;;;2.33;1.83;;;10.20;99.90;;;;;;5010128;28;20045;-67
2023/02/17 07:28:29;;;;;;;6.20;1.80;;;10.20;99.90;;;;;;5003842;28;20117;-66
2023/02/17 07:30:55;;;;;;;5.50;1.85;;;10.20;99.90;;;;;;5011012;28;20095;-68
2023/02/17 07:33:21;;;;;;;4.72;3.25;;;10.20;99.90;;;;;;5005332;28;20478;-68
2023/02/17 07:35:47;;;;;;;4.22;2.38;;;10.20;99.90;;;;;;5010624;28;20022;-68
2023/02/17 07:38:13;;;;;;;5.00;1.65;;;10.20;99.90;;;;;;4992247;28;20398;-68
2023/02/17 07:40:39;;;;;;;4.45;1.63;;;10.20;99.90;;;;;;4993423;28;20572;-68
2023/02/17 07:43:04;;;;;;;5.00;1.90;;;10.20;99.90;;;;;;5005797;28;20032;-68
2023/02/17 07:45:30;;;;;;;4.63;2.38;;;10.20;99.90;;;;;;5007240;28;20030;-68
2023/02/17 07:47:56;;;;;;;3.70;1.60;;;10.20;99.90;;;;;;4983434;28;20053;-67
2023/02/17 07:50:22;;;;;;;8.07;2.53;;;10.20;99.90;;;;;;5002384;28;20061;-67
2023/02/17 07:52:49;;;;;;;6.50;1.88;;;10.20;99.90;;;;;;4994078;28;20083;-68
2023/02/17 07:55:15;;;;;;;3.75;2.20;;;10.30;99.90;;;;;;4988711;28;20026;-68
2023/02/17 07:57:41;;;;;;;2.55;1.50;;;10.20;99.90;;;;;;5005730;28;20032;-68
2023/02/17 08:00:07;;;;;;;2.10;1.50;;;10.20;99.90;;;;;;4988644;28;20062;-68
2023/02/17 08:02:33;;;;;;;3.30;1.50;;;10.20;99.90;;;;;;5006010;28;20104;-68
2023/02/17 08:04:59;;;;;;;3.53;1.65;;;10.20;99.90;;;;;;5003629;28;20045;-69
2023/02/17 08:07:25;;;;;;;5.20;1.67;;;10.40;99.90;;;;;;5005544;28;20413;-67
2023/02/17 08:15:19;;;;;;;2.35;1.38;;;10.40;99.90;;;;;;5009538;28;20049;-67
2023/02/17 08:17:47;;;;;;;2.28;1.25;;;10.40;99.90;;;;;;4996543;28;20491;-67
2023/02/17 08:20:14;;;;;;;4.63;1.52;;;10.40;99.90;;;;;;5007477;28;20032;-66
2023/02/17 08:22:40;;;;;;;5.65;2.13;;;10.40;99.90;;;;;;5006606;28;20034;-68
2023/02/17 08:25:06;;;;;;;2.47;1.13;;;10.50;99.90;;;;;;5007687;28;20045;-66
2023/02/17 08:27:31;;;;;;;3.13;1.42;;;10.60;99.90;;;;;;5006092;28;20027;-67
2023/02/17 08:29:57;;;;;;;2.38;1.33;;;10.60;99.90;;;;;;5007930;28;20034;-66
2023/02/17 08:32:23;;;;;;;2.60;0.98;;;10.60;99.90;;;;;;4988790;28;20027;-67
2023/02/17 08:34:49;;;;;;;2.20;1.13;;;10.60;99.90;;;;;;5009382;28;20473;-67
2023/02/17 08:37:15;;;;;;;6.20;1.27;;;10.60;99.90;;;;;;5004957;28;20033;-67
2023/02/17 08:39:40;;;;;;;2.05;1.25;;;10.60;99.90;;;;;;5007910;28;20034;-67
2023/02/17 08:42:06;;;;;;;2.40;1.10;;;10.70;99.90;;;;;;5007655;28;20568;-68
2023/02/17 08:44:35;;;;;;;1.80;1.08;;;10.70;99.90;;;;;;5006807;28;20037;-67
2023/02/17 08:47:01;;;;;;;2.50;1.10;;;10.70;99.90;;;;;;5008289;28;20026;-68
2023/02/17 08:49:28;;;;;;;1.15;0.85;;;10.70;99.90;;;;;;5005885;28;20096;-67
2023/02/17 08:51:54;;;;;;;2.03;1.25;;;10.70;99.90;;;;;;5009015;28;20030;-68
2023/02/17 08:54:20;;;;;;;3.47;1.50;;;10.80;99.90;;;;;;4993027;28;20485;-67
2023/02/17 08:56:46;;;;;;;1.48;1.15;;;10.70;99.90;;;;;;4991833;28;20054;-67
2023/02/17 08:59:12;;;;;;;2.25;0.90;;;10.80;99.90;;;;;;5009365;28;20026;-68
2023/02/17 09:01:39;;;;;;;2.40;1.15;;;10.80;99.90;;;;;;4994336;28;20517;-67
2023/02/17 09:04:07;;;;;;;0.93;0.55;;;10.80;99.90;;;;;;4991197;28;20040;-67
2023/02/17 09:06:49;;;;;;;4.57;1.52;;;10.90;99.90;;;;;;4993900;28;20045;-67
2023/02/17 09:09:21;;;;;;;2.95;0.50;;;10.90;99.90;;;;;;5009393;28;20042;-67
2023/02/17 09:11:47;;;;;;;1.38;0.70;;;11.00;99.90;;;;;;5012272;28;21341;-67
2023/02/17 09:14:13;;;;;;;1.33;0.90;;;11.10;99.90;;;;;;5009247;28;20393;-67
2023/02/17 09:16:39;;;;;;;1.35;0.80;;;11.10;99.90;;;;;;4993765;28;20035;-67
2023/02/17 09:19:05;;;;;;;2.03;0.88;;;11.10;99.90;;;;;;5008004;28;20022;-68
2023/02/17 09:21:31;;;;;;;1.73;0.68;;;11.20;99.90;;;;;;4998228;28;20032;-67
2023/02/17 09:23:57;;;;;;;2.05;0.93;;;11.10;99.90;;;;;;4991312;28;20029;-67
2023/02/17 09:26:23;;;;;;;4.05;1.17;;;11.10;99.90;;;;;;5013091;28;20041;-67
2023/02/17 09:28:49;;;;;;;1.70;0.82;;;11.10;99.90;;;;;;5007274;28;20398;-67
2023/02/17 09:31:25;;;;;;;1.50;0.73;;;11.20;99.90;;;;;;4992602;28;20069;-67
2023/02/17 09:33:51;;;;;;;4.05;0.90;;;11.20;99.90;;;;;;4990469;28;20037;-67
2023/02/17 09:36:24;;;;;;;0.98;0.70;;;11.20;99.90;;;;;;5013080;28;20042;-67
2023/02/17 09:38:51;;;;;;;1.10;0.77;;;11.20;99.90;;;;;;5008405;28;20053;-68
2023/02/17 09:41:41;;;;;;;2.08;0.93;;;11.20;99.90;;;;;;4992157;28;20101;-69
2023/02/17 09:44:23;;;;;;;2.55;1.08;;;11.10;99.90;;;;;;4993169;28;20031;-68
2023/02/17 09:46:58;;;;;;;2.35;1.25;;;11.10;99.90;;;;;;4998951;28;20038;-68
2023/02/17 09:49:30;;;;;;;5.07;0.80;;;11.00;99.90;;;;;;5008179;28;20056;-69
2023/02/17 09:52:12;;;;;;;2.33;0.93;;;11.00;99.90;;;;;;4993562;28;20038;-67
2023/02/17 09:55:14;;;;;;;2.28;1.17;;;11.00;99.90;;;;;;4990435;28;20093;-68
2023/02/17 09:57:55;;;;;;;2.10;1.30;;;10.90;99.90;;;;;;4995507;28;20030;-67
2023/02/17 10:00:40;;;;;;;1.65;1.35;;;11.00;99.90;;;;;;5008466;28;20033;-68
2023/02/17 10:03:15;;;;;;;1.88;1.38;;;11.00;99.90;;;;;;4991133;28;20060;-68
2023/02/17 10:06:21;;;;;;;2.13;1.38;;;11.00;99.90;;;;;;4993858;28;20044;-70
2023/02/17 10:08:55;;;;;;;2.55;1.30;;;11.10;99.90;;;;;;4942202;28;20049;-70
2023/02/17 10:11:49;;;;;;;1.60;0.85;;;11.20;99.90;;;;;;4992101;28;20026;-70
2023/02/17 10:14:48;;;;;;;1.45;0.80;;;11.20;99.90;;;;;;5012441;28;20026;-69
2023/02/17 10:17:43;;;;;;;3.83;1.33;;;11.20;99.90;;;;;;5009024;28;20393;-69
2023/02/17 10:20:18;;;;;;;3.58;1.08;;;11.20;99.90;;;;;;4987744;28;20038;-69
2023/02/17 10:22:56;;;;;;;2.13;0.98;;;11.30;99.90;;;;;;4993051;28;20044;-70
2023/02/17 10:25:47;;;;;;;3.75;1.58;;;11.30;99.90;;;;;;4990384;28;20437;-71
2023/02/17 10:28:43;;;;;;;4.30;0.93;;;11.30;99.90;;;;;;5002575;28;20040;-71
2023/02/17 10:31:43;;;;;;;4.03;1.27;;;11.30;99.90;;;;;;5012537;28;20038;-69
2023/02/17 10:34:48;;;;;;;3.15;1.50;;;11.30;99.90;;;;;;4997599;28;20457;-69
2023/02/17 10:37:47;;;;;;;2.67;1.00;;;11.40;99.90;;;;;;4993514;28;20493;-69
2023/02/17 10:40:26;;;;;;;5.50;1.10;;;11.40;99.90;;;;;;4987601;28;20069;-70
2023/02/17 10:43:01;;;;;;;1.98;0.70;;;11.40;99.90;;;;;;5002502;28;20026;-70
2023/02/17 10:45:34;;;;;;;5.30;1.30;;;11.50;99.90;;;;;;4994925;28;20026;-71
2023/02/17 10:48:45;;;;;;;2.30;0.85;;;11.50;99.90;;;;;;4992079;28;20030;-73
2023/02/17 10:51:24;;;;;;;2.22;1.27;;;11.50;99.90;;;;;;4965858;28;20054;-68
2023/02/17 10:54:03;;;;;;;1.88;1.20;;;11.60;99.90;;;;;;4994674;28;20038;-68
2023/02/17 10:56:38;;;;;;;3.53;1.88;;;11.60;99.90;;;;;;4991408;28;20028;-70
2023/02/17 10:59:19;;;;;;;1.60;0.82;;;11.70;99.90;;;;;;4979567;28;20025;-70
2023/02/17 11:01:46;;;;;;;1.60;0.98;;;11.70;99.90;;;;;;4992814;28;20492;-68
2023/02/17 11:04:12;;;;;;;3.47;1.20;;;11.70;99.90;;;;;;4991771;28;20042;-67
2023/02/17 11:06:51;;;;;;;2.78;1.20;;;11.80;99.90;;;;;;4976595;28;20537;-67
2023/02/17 11:09:30;;;;;;;1.55;0.80;;;11.80;99.90;;;;;;4990232;28;20061;-68
2023/02/17 11:12:23;;;;;;;2.45;1.15;;;11.80;99.90;;;;;;4985453;28;20049;-68
2023/02/17 11:14:53;;;;;;;1.30;0.77;;;11.80;99.90;;;;;;4993292;28;20033;-68
2023/02/17 11:17:34;;;;;;;1.73;0.90;;;11.90;99.90;;;;;;4993741;28;20417;-67
2023/02/17 11:20:25;;;;;;;;;;;11.90;99.90;;;;;;4989300;28;20100;-66
2023/02/17 11:23:20;;;;;;;1.02;0.85;;;11.90;99.90;;;;;;5007091;28;20296;-68
2023/02/17 11:26:01;;;;;;;1.67;1.20;;;12.00;99.90;;;;;;5010689;28;20481;-66
2023/02/17 11:28:28;;;;;;;1.23;1.02;;;12.10;99.90;;;;;;4972981;28;20456;-67
2023/02/17 11:31:01;;;;;;;2.40;1.05;;;12.00;99.90;;;;;;4993752;28;20527;-68
2023/02/17 11:33:32;;;;;;;5.78;1.30;;;12.00;99.90;;;;;;4989961;28;20434;-63
2023/02/17 11:35:59;;;;;;;;;;;12.10;99.90;;;;;;5011373;28;20504;-64
2023/02/17 11:38:43;;;;;;;2.22;0.95;;;12.10;99.90;;;;;;4991375;28;20370;-63
2023/02/17 11:41:10;;;;;;;1.38;0.75;;;12.10;99.90;;;;;;4992074;28;20025;-63
2023/02/17 11:43:36;;;;;;;0.95;0.60;;;12.20;99.90;;;;;;5006033;28;20038;-63
2023/02/17 11:46:45;;;;;;;1.40;0.77;;;12.20;99.90;;;;;;4989878;28;20105;-63
2023/02/17 11:49:41;;;;;;;1.20;0.50;;;12.30;99.90;;;;;;4911771;29;20072;-65
2023/02/17 11:52:54;;;;;;;0.93;0.45;;;12.30;99.90;;;;;;4986461;28;20022;-64
2023/02/17 11:56:02;;;;;;;3.63;0.73;;;12.30;99.90;;;;;;4993784;28;20034;-64
2023/02/17 11:58:52;;;;;;;2.67;0.80;;;12.30;99.90;;;;;;5004300;28;20038;-64
2023/02/17 12:02:13;;;;;;;0.93;0.30;;;12.30;99.90;;;;;;5011049;28;20049;-63
2023/02/17 12:05:08;;;;;;;1.73;1.15;;;12.40;99.90;;;;;;5007840;28;20061;-65
2023/02/17 12:11:03;;;;;;;1.02;0.63;;;12.40;99.90;;;;;;5247345;23;20495;-70
2023/02/17 12:13:50;;;;;;;1.83;0.77;;;12.40;99.90;;;;;;5049997;28;20036;-73
2023/02/17 12:16:54;;;;;;;0.88;0.55;;;12.40;99.90;;;;;;5039728;28;20120;-76
2023/02/17 12:20:03;;;;;;;0.52;0.40;;;12.50;99.90;;;;;;5030969;28;21550;-75
2023/02/17 12:23:08;;;;;;;1.38;0.63;;;12.50;99.90;;;;;;5020886;28;20034;-77
2023/02/17 12:26:00;;;;;;;0.75;0.45;;;12.50;99.90;;;;;;5014915;28;20045;-76
2023/02/17 12:29:09;;;;;;;1.85;0.70;;;12.60;99.90;;;;;;4987277;28;20087;-76
2023/02/17 12:32:15;;;;;;;0.60;0.28;;;12.50;99.90;;;;;;5020016;28;20045;-75
2023/02/17 12:34:44;;;;;;;1.88;1.02;;;12.60;99.90;;;;;;5017768;28;20036;-75
2023/02/17 12:37:33;;;;;;;1.50;0.80;;;12.60;99.90;;;;;;5012101;28;20021;-74
2023/02/17 12:40:14;;;;;;;0.88;0.68;;;12.60;99.90;;;;;;5007348;28;20036;-74
2023/02/17 12:42:51;;;;;;;0.40;0.25;;;12.60;99.90;;;;;;5010824;28;20045;-75
2023/02/17 12:45:29;;;;;;;0.57;0.38;;;12.70;99.90;;;;;;5003768;28;20045;-74
2023/02/17 12:48:28;;;;;;;0.35;0.30;;;12.80;99.90;;;;;;5012173;28;20030;-75
2023/02/17 12:51:08;;;;;;;0.90;0.47;;;12.90;99.90;;;;;;5026013;28;20030;-76
2023/02/17 12:53:44;;;;;;;1.17;0.38;;;13.00;99.90;;;;;;5011909;28;20037;-75
2023/02/17 12:56:55;;;;;;;0.50;0.30;;;13.20;99.90;;;;;;5010936;28;20056;-75
2023/02/17 12:59:26;;;;;;;1.02;0.50;;;13.30;99.90;;;;;;4995853;28;20037;-75
2023/02/17 13:02:11;;;;;;;0.65;0.32;;;13.40;99.90;;;;;;5005288;28;20077;-79
2023/02/17 13:04:38;;;;;;;0.22;0.20;;;13.40;99.90;;;;;;4992121;28;20030;-82
2023/02/17 13:08:03;;;;;;;1.23;0.55;;;13.50;99.90;;;;;;5024278;28;20033;-76
2023/02/17 13:10:36;;;;;;;0.10;0.10;;;13.50;99.90;;;;;;4903424;29;20036;-72
2023/02/17 13:13:24;;;;;;;1.00;0.60;;;13.40;99.90;;;;;;4894722;29;20111;-75
2023/02/17 13:16:07;;;;;;;0.95;0.60;;;13.50;99.90;;;;;;4966450;28;20037;-76
2023/02/17 13:18:46;;;;;;;1.20;0.63;;;13.70;99.90;;;;;;5011023;28;20041;-75
2023/02/17 13:21:22;;;;;;;0.22;0.22;;;13.70;99.90;;;;;;5009404;28;20115;-75
2023/02/17 13:24:01;;;;;;;1.17;0.50;;;13.80;99.90;;;;;;5015521;28;20061;-75
2023/02/17 13:26:34;;;;;;;0.43;0.20;;;13.60;99.90;;;;;;5009598;28;20056;-73
2023/02/17 13:29:24;;;;;;;0.30;0.30;;;13.50;99.90;;;;;;5009842;28;20370;-72
2023/02/17 13:32:03;;;;;;;0.40;0.30;;;13.60;99.90;;;;;;5025334;28;20037;-74
2023/02/17 13:34:40;;;;;;;1.48;0.45;;;13.50;99.90;;;;;;5009365;28;20080;-75
2023/02/17 13:37:32;;;;;;;1.27;0.45;;;13.60;99.90;;;;;;5013221;28;20121;-74